Wetterdaten: Woche 22.12.08 - 28.12.08 (KW52)
Datum Zeit Temp. A. Feuchte A. Luftdruck Regen Wind Richtung Taupunkt Windchill Windben
22.12.2008 00:00 5,3 C 90 % 1028,9 hPa 0,0 l/m 3,0 km/h (1 Bft) NW 3,7 C 5,3 C 9,3 km/h (2 Bft)
22.12.2008 01:00 6,8 C 84 % 1028,6 hPa 0,0 l/m 6,3 km/h (2 Bft) W-NW 4,3 C 6,5 C 16,9 km/h (3 Bft)
22.12.2008 02:00 7,4 C 80 % 1028,7 hPa 0,0 l/m 8,4 km/h (2 Bft) W-NW 4,1 C 5,8 C 20,5 km/h (4 Bft)
22.12.2008 03:00 7,6 C 77 % 1028,2 hPa 0,0 l/m 10,8 km/h (2 Bft) NW 3,9 C 4,5 C 27,8 km/h (4 Bft)
22.12.2008 04:00 7,6 C 77 % 1027,8 hPa 0,0 l/m 12,7 km/h (3 Bft) W 3,7 C 3,4 C 30,2 km/h (5 Bft)
22.12.2008 05:00 7,6 C 76 % 1027,4 hPa 0,0 l/m 13,0 km/h (3 Bft) W-NW 3,6 C 3,3 C 29,8 km/h (5 Bft)
22.12.2008 06:00 7,8 C 75 % 1027,0 hPa 0,3 l/m 19,5 km/h (3 Bft) W 3,7 C 0,7 C 41,4 km/h (6 Bft)
22.12.2008 07:00 8,1 C 73 % 1026,3 hPa 0,0 l/m 24,0 km/h (4 Bft) W-NW 3,7 C -0,3 C 50,3 km/h (7 Bft)
22.12.2008 08:00 8,6 C 73 % 1026,2 hPa 0,0 l/m 21,4 km/h (4 Bft) W 4,0 C 1,0 C 46,7 km/h (6 Bft)
22.12.2008 09:00 8,9 C 71 % 1025,9 hPa 0,0 l/m 19,7 km/h (3 Bft) SW 3,9 C 2,0 C 43,8 km/h (6 Bft)
22.12.2008 10:00 8,6 C 76 % 1026,2 hPa 0,3 l/m 19,0 km/h (3 Bft) W-SW 4,6 C 1,9 C 43,0 km/h (6 Bft)
22.12.2008 11:00 8,7 C 74 % 1025,3 hPa 0,0 l/m 18,0 km/h (3 Bft) SW 4,3 C 2,4 C 37,8 km/h (5 Bft)
22.12.2008 12:00 8,9 C 73 % 1024,7 hPa 0,0 l/m 17,2 km/h (3 Bft) W 4,3 C 2,9 C 38,7 km/h (5 Bft)
22.12.2008 13:00 8,8 C 73 % 1024,0 hPa 0,0 l/m 16,1 km/h (3 Bft) W 4,2 C 3,2 C 37,8 km/h (5 Bft)
22.12.2008 14:00 8,6 C 73 % 1023,1 hPa 0,0 l/m 16,9 km/h (3 Bft) W 4,1 C 2,6 C 35,4 km/h (5 Bft)
22.12.2008 15:00 8,7 C 74 % 1023,4 hPa 0,0 l/m 15,8 km/h (3 Bft) W-SW 4,2 C 3,2 C 36,2 km/h (5 Bft)
22.12.2008 16:00 8,7 C 74 % 1023,3 hPa 0,0 l/m 14,1 km/h (3 Bft) W-NW 4,3 C 4,0 C 38,6 km/h (5 Bft)
22.12.2008 17:00 8,9 C 72 % 1023,1 hPa 0,0 l/m 17,4 km/h (3 Bft) W 4,0 C 2,8 C 40,2 km/h (6 Bft)
22.12.2008 18:00 8,7 C 75 % 1023,7 hPa 0,0 l/m 16,6 km/h (3 Bft) NW 4,4 C 2,9 C 38,2 km/h (5 Bft)
22.12.2008 19:00 7,8 C 82 % 1024,4 hPa 0,6 l/m 16,9 km/h (3 Bft) W 4,9 C 1,7 C 36,2 km/h (5 Bft)
22.12.2008 20:00 7,9 C 79 % 1025,1 hPa 0,0 l/m 15,8 km/h (3 Bft) W-NW 4,5 C 2,3 C 30,2 km/h (5 Bft)
22.12.2008 21:00 8,2 C 77 % 1026,1 hPa 0,0 l/m 14,6 km/h (3 Bft) NW 4,3 C 3,1 C 31,0 km/h (5 Bft)
22.12.2008 22:00 7,9 C 74 % 1026,3 hPa 0,0 l/m 16,2 km/h (3 Bft) W-NW 3,6 C 2,1 C 32,6 km/h (5 Bft)
22.12.2008 23:00 7,7 C 64 % 1026,2 hPa 0,0 l/m 19,2 km/h (3 Bft) N-NW 1,3 C 0,6 C 38,6 km/h (5 Bft)
23.12.2008 00:00 7,6 C 60 % 1025,8 hPa 0,0 l/m 17,5 km/h (3 Bft) NW 0,2 C 1,2 C 37,4 km/h (5 Bft)
23.12.2008 01:00 6,9 C 63 % 1025,4 hPa 0,0 l/m 13,9 km/h (3 Bft) NW 0,4 C 1,9 C 27,3 km/h (4 Bft)
23.12.2008 02:00 6,5 C 67 % 1025,3 hPa 0,0 l/m 14,5 km/h (3 Bft) NW 0,8 C 1,1 C 27,0 km/h (4 Bft)
23.12.2008 03:00 6,2 C 68 % 1025,3 hPa 0,0 l/m 16,5 km/h (3 Bft) NW 0,8 C -0,2 C 30,6 km/h (5 Bft)
23.12.2008 04:00 6,3 C 68 % 1025,4 hPa 0,0 l/m 17,7 km/h (3 Bft) NW 0,8 C -0,6 C 32,6 km/h (5 Bft)
23.12.2008 05:00 6,5 C 65 % 1025,9 hPa 0,0 l/m 17,1 km/h (3 Bft) NW 0,4 C -0,0 C 33,8 km/h (5 Bft)
23.12.2008 06:00 6,7 C 61 % 1026,3 hPa 0,0 l/m 19,9 km/h (4 Bft) NW -0,3 C -0,9 C 39,4 km/h (6 Bft)
23.12.2008 07:00 6,7 C 60 % 1027,0 hPa 0,0 l/m 19,0 km/h (3 Bft) N-NW -0,6 C -0,6 C 38,2 km/h (5 Bft)
23.12.2008 08:00 6,7 C 59 % 1027,3 hPa 0,0 l/m 17,9 km/h (3 Bft) NW -0,7 C -0,2 C 35,4 km/h (5 Bft)
23.12.2008 09:00 6,8 C 64 % 1027,6 hPa 0,0 l/m 17,4 km/h (3 Bft) NW 0,4 C 0,2 C 33,8 km/h (5 Bft)
23.12.2008 10:00 7,1 C 65 % 1027,5 hPa 0,0 l/m 19,2 km/h (3 Bft) W-NW 1,1 C -0,1 C 37,8 km/h (5 Bft)
23.12.2008 11:00 7,3 C 64 % 1027,3 hPa 0,0 l/m 18,3 km/h (3 Bft) NW 1,0 C 0,4 C 37,4 km/h (5 Bft)
23.12.2008 12:00 7,2 C 65 % 1026,9 hPa 0,0 l/m 17,2 km/h (3 Bft) W 1,0 C 0,8 C 36,6 km/h (5 Bft)
23.12.2008 13:00 7,1 C 67 % 1027,0 hPa 0,0 l/m 18,6 km/h (3 Bft) NW 1,3 C 0,1 C 37,8 km/h (5 Bft)
23.12.2008 14:00 6,9 C 66 % 1027,0 hPa 0,0 l/m 16,0 km/h (3 Bft) W-NW 1,0 C 1,0 C 33,4 km/h (5 Bft)
23.12.2008 15:00 6,8 C 69 % 1027,1 hPa 0,0 l/m 16,4 km/h (3 Bft) NW 1,5 C 0,7 C 34,2 km/h (5 Bft)
23.12.2008 16:00 5,9 C 74 % 1027,9 hPa 0,6 l/m 17,4 km/h (3 Bft) NW 1,5 C -1,0 C 38,6 km/h (5 Bft)
23.12.2008 17:00 6,2 C 69 % 1028,1 hPa 0,0 l/m 16,4 km/h (3 Bft) W-NW 0,9 C -0,1 C 34,6 km/h (5 Bft)
23.12.2008 18:00 5,4 C 78 % 1028,8 hPa 0,0 l/m 14,9 km/h (3 Bft) W-NW 1,8 C -0,3 C 30,6 km/h (5 Bft)
23.12.2008 19:00 5,6 C 72 % 1029,3 hPa 0,0 l/m 11,6 km/h (2 Bft) NW 0,9 C 1,8 C 26,1 km/h (4 Bft)
23.12.2008 20:00 5,9 C 64 % 1029,8 hPa 0,0 l/m 17,5 km/h (3 Bft) N-NW -0,4 C -1,0 C 33,8 km/h (5 Bft)
23.12.2008 21:00 5,6 C 64 % 1030,2 hPa 0,0 l/m 17,2 km/h (3 Bft) NW -0,6 C -1,2 C 32,2 km/h (5 Bft)
23.12.2008 22:00 5,5 C 64 % 1030,2 hPa 0,0 l/m 16,9 km/h (3 Bft) NW -0,9 C -1,2 C 31,4 km/h (5 Bft)
23.12.2008 23:00 5,0 C 63 % 1030,8 hPa 0,0 l/m 15,8 km/h (3 Bft) NW -1,4 C -1,3 C 33,0 km/h (5 Bft)
24.12.2008 00:00 4,6 C 65 % 1031,1 hPa 0,0 l/m 14,7 km/h (3 Bft) N-NW -1,5 C -1,2 C 31,4 km/h (5 Bft)
24.12.2008 01:00 4,3 C 67 % 1031,1 hPa 0,0 l/m 13,2 km/h (3 Bft) N-NW -1,3 C -0,7 C 25,3 km/h (4 Bft)
24.12.2008 02:00 4,2 C 67 % 1031,2 hPa 0,0 l/m 16,2 km/h (3 Bft) W-NW -1,4 C -2,5 C 30,2 km/h (5 Bft)
24.12.2008 03:00 4,2 C 68 % 1031,0 hPa 0,0 l/m 11,8 km/h (2 Bft) NW -1,2 C 0,1 C 24,9 km/h (4 Bft)
24.12.2008 04:00 4,3 C 70 % 1030,8 hPa 0,0 l/m 8,6 km/h (2 Bft) W-NW -0,8 C 2,4 C 20,9 km/h (4 Bft)
24.12.2008 05:00 4,1 C 72 % 1030,9 hPa 0,0 l/m 4,6 km/h (1 Bft) N-NW -0,6 C 3,9 C 12,1 km/h (2 Bft)
24.12.2008 06:00 4,3 C 75 % 1030,4 hPa 0,0 l/m 5,0 km/h (1 Bft) NW 0,3 C 4,3 C 12,5 km/h (3 Bft)
24.12.2008 07:00 4,5 C 75 % 1030,3 hPa 0,0 l/m 6,3 km/h (2 Bft) NW 0,4 C 4,1 C 16,1 km/h (3 Bft)
24.12.2008 08:00 4,8 C 75 % 1030,3 hPa 0,0 l/m 7,4 km/h (2 Bft) W-NW 0,7 C 4,0 C 17,7 km/h (3 Bft)
24.12.2008 09:00 5,2 C 75 % 1029,9 hPa 0,0 l/m 6,0 km/h (2 Bft) NW 1,0 C 5,1 C 18,1 km/h (3 Bft)
24.12.2008 10:00 5,7 C 74 % 1029,3 hPa 0,0 l/m 7,4 km/h (2 Bft) SW 1,5 C 4,9 C 19,7 km/h (3 Bft)
24.12.2008 11:00 6,7 C 72 % 1027,9 hPa 0,0 l/m 10,9 km/h (2 Bft) W 1,9 C 3,4 C 28,2 km/h (4 Bft)
24.12.2008 12:00 7,2 C 71 % 1027,1 hPa 0,0 l/m 12,7 km/h (3 Bft) W-NW 2,2 C 3,0 C 27,8 km/h (4 Bft)
24.12.2008 13:00 7,2 C 71 % 1025,7 hPa 0,0 l/m 9,3 km/h (2 Bft) SW 2,2 C 4,9 C 24,1 km/h (4 Bft)
24.12.2008 14:00 6,8 C 73 % 1025,4 hPa 0,0 l/m 10,1 km/h (2 Bft) W-NW 2,3 C 4,0 C 26,6 km/h (4 Bft)
24.12.2008 15:00 6,4 C 74 % 1024,8 hPa 0,0 l/m 11,5 km/h (2 Bft) W 2,1 C 2,7 C 30,2 km/h (5 Bft)
24.12.2008 16:00 6,3 C 74 % 1024,4 hPa 0,0 l/m 9,4 km/h (2 Bft) W 1,9 C 3,9 C 24,5 km/h (4 Bft)
24.12.2008 17:00 6,3 C 74 % 1024,1 hPa 0,0 l/m 8,2 km/h (2 Bft) NW 1,9 C 4,8 C 18,5 km/h (3 Bft)
24.12.2008 18:00 6,1 C 75 % 1023,0 hPa 0,0 l/m 9,1 km/h (2 Bft) W-NW 2,0 C 4,0 C 21,7 km/h (4 Bft)
24.12.2008 19:00 6,3 C 75 % 1022,7 hPa 0,0 l/m 9,6 km/h (2 Bft) W 2,1 C 3,8 C 26,1 km/h (4 Bft)
24.12.2008 20:00 5,9 C 80 % 1022,5 hPa 0,3 l/m 11,1 km/h (2 Bft) W-NW 2,7 C 2,4 C 24,1 km/h (4 Bft)
24.12.2008 21:00 5,5 C 83 % 1022,3 hPa 1,5 l/m 10,9 km/h (2 Bft) W 2,7 C 2,0 C 24,5 km/h (4 Bft)
24.12.2008 22:00 5,1 C 85 % 1022,4 hPa 0,6 l/m 9,1 km/h (2 Bft) W-NW 2,8 C 2,9 C 24,1 km/h (4 Bft)
24.12.2008 23:00 5,2 C 85 % 1022,5 hPa 0,3 l/m 8,1 km/h (2 Bft) NW 2,8 C 3,7 C 20,1 km/h (4 Bft)
25.12.2008 00:00 5,0 C 85 % 1022,7 hPa 0,0 l/m 5,5 km/h (1 Bft) NW 2,7 C 5,0 C 12,5 km/h (3 Bft)
25.12.2008 01:00 5,0 C 85 % 1023,0 hPa 0,3 l/m 6,7 km/h (2 Bft) W-NW 2,7 C 4,7 C 14,9 km/h (3 Bft)
25.12.2008 02:00 4,4 C 87 % 1023,3 hPa 1,8 l/m 5,5 km/h (1 Bft) W-NW 2,4 C 4,3 C 13,3 km/h (3 Bft)
25.12.2008 03:00 4,3 C 88 % 1023,6 hPa 0,0 l/m 6,3 km/h (2 Bft) NW 2,4 C 3,8 C 15,3 km/h (3 Bft)
25.12.2008 04:00 4,4 C 87 % 1023,7 hPa 0,0 l/m 7,6 km/h (2 Bft) NW 2,5 C 3,3 C 16,9 km/h (3 Bft)
25.12.2008 05:00 4,3 C 85 % 1024,3 hPa 0,0 l/m 6,5 km/h (2 Bft) NW 2,0 C 3,7 C 14,1 km/h (3 Bft)
25.12.2008 06:00 4,3 C 85 % 1024,9 hPa 0,0 l/m 7,4 km/h (2 Bft) NW 1,9 C 3,4 C 18,1 km/h (3 Bft)
25.12.2008 07:00 2,7 C 80 % 1026,6 hPa 0,0 l/m 10,6 km/h (2 Bft) NO -0,5 C -0,7 C 23,7 km/h (4 Bft)
25.12.2008 08:00 1,4 C 74 % 1028,3 hPa 0,0 l/m 8,4 km/h (2 Bft) NO -2,8 C -0,6 C 19,3 km/h (3 Bft)
25.12.2008 09:00 0,9 C 72 % 1029,4 hPa 0,0 l/m 7,9 km/h (2 Bft) NO -3,7 C -0,6 C 18,1 km/h (3 Bft)
25.12.2008 10:00 0,8 C 70 % 1030,0 hPa 0,0 l/m 8,3 km/h (2 Bft) N-NO -4,1 C -1,1 C 20,5 km/h (4 Bft)
25.12.2008 11:00 0,8 C 68 % 1030,0 hPa 0,0 l/m 5,8 km/h (2 Bft) O-NO -4,4 C 0,8 C 16,1 km/h (3 Bft)
25.12.2008 12:00 1,3 C 62 % 1030,1 hPa 0,3 l/m 9,6 km/h (2 Bft) N-NO -5,1 C -1,6 C 22,9 km/h (4 Bft)
25.12.2008 13:00 1,4 C 62 % 1030,4 hPa 0,0 l/m 9,2 km/h (2 Bft) NO -5,2 C -1,3 C 22,5 km/h (4 Bft)
25.12.2008 14:00 0,9 C 64 % 1031,0 hPa 0,0 l/m 8,7 km/h (2 Bft) NO -5,1 C -1,4 C 20,1 km/h (4 Bft)
25.12.2008 15:00 0,6 C 64 % 1031,7 hPa 0,0 l/m 8,2 km/h (2 Bft) NO -5,4 C -1,2 C 18,9 km/h (3 Bft)
25.12.2008 16:00 0,4 C 67 % 1032,3 hPa 0,0 l/m 7,4 km/h (2 Bft) N-NO -5,1 C -0,7 C 19,3 km/h (3 Bft)
25.12.2008 17:00 -0,1 C 69 % 1033,1 hPa 0,0 l/m 6,4 km/h (2 Bft) NO -5,1 C -0,6 C 16,9 km/h (3 Bft)
25.12.2008 18:00 -0,7 C 71 % 1034,0 hPa 0,0 l/m 4,9 km/h (1 Bft) NO -5,3 C -0,7 C 13,7 km/h (3 Bft)
25.12.2008 19:00 -1,0 C 74 % 1034,8 hPa 0,0 l/m 3,2 km/h (1 Bft) N -5,2 C -1,0 C 8,0 km/h (2 Bft)
25.12.2008 20:00 -1,3 C 76 % 1035,5 hPa 0,0 l/m 3,2 km/h (1 Bft) N-NW -4,9 C -1,3 C 8,9 km/h (2 Bft)
25.12.2008 21:00 -1,3 C 77 % 1036,1 hPa 0,0 l/m 3,8 km/h (1 Bft) NW -4,8 C -1,3 C 10,9 km/h (2 Bft)
25.12.2008 22:00 -1,7 C 79 % 1036,5 hPa 0,0 l/m 1,5 km/h (1 Bft) NW -5,0 C -1,7 C 6,4 km/h (2 Bft)
25.12.2008 23:00 -2,1 C 80 % 1037,1 hPa 0,0 l/m 2,5 km/h (1 Bft) N-NO -5,1 C -2,1 C 6,4 km/h (2 Bft)
26.12.2008 00:00 -2,2 C 80 % 1037,7 hPa 0,0 l/m 2,0 km/h (1 Bft) W-NW -5,2 C -2,2 C 4,8 km/h (1 Bft)
26.12.2008 01:00 -2,3 C 80 % 1037,7 hPa 0,0 l/m 3,9 km/h (1 Bft) NW -5,3 C -2,3 C 8,0 km/h (2 Bft)
26.12.2008 02:00 -2,5 C 80 % 1038,0 hPa 0,0 l/m 4,0 km/h (1 Bft) NW -5,4 C -2,5 C 8,4 km/h (2 Bft)
26.12.2008 03:00 -2,7 C 80 % 1038,0 hPa 0,0 l/m 3,2 km/h (1 Bft) NW -5,6 C -2,7 C 8,0 km/h (2 Bft)
26.12.2008 04:00 -2,8 C 80 % 1038,1 hPa 0,0 l/m 3,3 km/h (1 Bft) NW -5,7 C -2,8 C 8,9 km/h (2 Bft)
26.12.2008 05:00 -2,5 C 80 % 1038,5 hPa 0,0 l/m 5,3 km/h (1 Bft) NW -5,4 C -2,5 C 10,1 km/h (2 Bft)
26.12.2008 06:00 -1,8 C 78 % 1038,8 hPa 0,0 l/m 6,7 km/h (2 Bft) NW -5,1 C -2,3 C 15,3 km/h (3 Bft)
26.12.2008 07:00 -1,6 C 76 % 1039,0 hPa 0,0 l/m 6,7 km/h (2 Bft) NW -5,3 C -2,2 C 14,1 km/h (3 Bft)
26.12.2008 08:00 -1,3 C 75 % 1039,3 hPa 0,0 l/m 5,2 km/h (1 Bft) N-NW -5,2 C -1,3 C 12,1 km/h (2 Bft)
26.12.2008 09:00 -1,2 C 75 % 1039,6 hPa 0,0 l/m 5,0 km/h (1 Bft) NW -5,0 C -1,2 C 10,9 km/h (2 Bft)
26.12.2008 10:00 -1,1 C 77 % 1039,6 hPa 0,0 l/m 5,4 km/h (1 Bft) W -4,7 C -1,1 C 11,3 km/h (2 Bft)
26.12.2008 11:00 -1,0 C 78 % 1039,3 hPa 0,0 l/m 5,3 km/h (1 Bft) NW -4,4 C -1,0 C 12,1 km/h (2 Bft)
26.12.2008 12:00 -0,9 C 78 % 1038,8 hPa 0,0 l/m 5,5 km/h (1 Bft) N-NW -4,2 C -0,9 C 12,9 km/h (3 Bft)
26.12.2008 13:00 -0,9 C 80 % 1038,5 hPa 0,0 l/m 5,4 km/h (1 Bft) NW -4,0 C -0,9 C 14,5 km/h (3 Bft)
26.12.2008 14:00 -0,9 C 81 % 1038,4 hPa 0,0 l/m 4,6 km/h (1 Bft) W-NW -3,8 C -0,9 C 10,5 km/h (2 Bft)
26.12.2008 15:00 -0,9 C 81 % 1038,4 hPa 0,0 l/m 3,9 km/h (1 Bft) NW -3,7 C -0,9 C 8,4 km/h (2 Bft)
26.12.2008 16:00 -0,9 C 82 % 1038,3 hPa 0,0 l/m 3,9 km/h (1 Bft) NW -3,6 C -0,9 C 8,0 km/h (2 Bft)
26.12.2008 17:00 -0,9 C 82 % 1038,2 hPa 0,0 l/m 3,5 km/h (1 Bft) NW -3,6 C -0,9 C 8,9 km/h (2 Bft)
26.12.2008 18:00 -0,8 C 82 % 1038,2 hPa 0,0 l/m 3,8 km/h (1 Bft) NW -3,5 C -0,8 C 8,4 km/h (2 Bft)
26.12.2008 19:00 -0,8 C 82 % 1038,1 hPa 0,0 l/m 3,7 km/h (1 Bft) W-NW -3,5 C -0,8 C 7,6 km/h (2 Bft)
26.12.2008 20:00 -0,7 C 80 % 1038,1 hPa 0,0 l/m 3,2 km/h (1 Bft) NW -3,7 C -0,7 C 8,9 km/h (2 Bft)
26.12.2008 21:00 -0,7 C 79 % 1038,1 hPa 0,0 l/m 3,0 km/h (1 Bft) N-NO -4,0 C -0,7 C 7,6 km/h (2 Bft)
26.12.2008 22:00 -0,7 C 78 % 1037,9 hPa 0,0 l/m 1,8 km/h (1 Bft) NW -4,0 C -0,7 C 5,6 km/h (1 Bft)
26.12.2008 23:00 -0,8 C 78 % 1037,6 hPa 0,0 l/m 2,7 km/h (1 Bft) NW -4,2 C -0,8 C 6,4 km/h (2 Bft)
27.12.2008 00:00 -0,9 C 78 % 1037,3 hPa 0,0 l/m 1,8 km/h (1 Bft) NW -4,2 C -0,9 C 5,6 km/h (1 Bft)
27.12.2008 01:00 -1,0 C 79 % 1036,9 hPa 0,0 l/m 1,8 km/h (1 Bft) NW -4,2 C -1,0 C 5,2 km/h (1 Bft)
27.12.2008 02:00 -1,1 C 79 % 1036,9 hPa 0,0 l/m 1,9 km/h (1 Bft) N-NW -4,2 C -1,1 C 5,2 km/h (1 Bft)
27.12.2008 03:00 -1,2 C 80 % 1036,4 hPa 0,0 l/m 2,2 km/h (1 Bft) NW -4,2 C -1,2 C 4,8 km/h (1 Bft)
27.12.2008 04:00 -1,2 C 80 % 1036,1 hPa 0,0 l/m 1,3 km/h (1 Bft) NW -4,2 C -1,2 C 4,4 km/h (1 Bft)
27.12.2008 05:00 -1,3 C 81 % 1036,1 hPa 0,0 l/m 1,4 km/h (1 Bft) NW -4,2 C -1,3 C 4,4 km/h (1 Bft)
27.12.2008 06:00 -1,3 C 81 % 1036,3 hPa 0,0 l/m 1,4 km/h (1 Bft) NW -4,1 C -1,3 C 4,4 km/h (1 Bft)
27.12.2008 07:00 -1,3 C 81 % 1036,4 hPa 0,0 l/m 1,4 km/h (1 Bft) NW -4,2 C -1,3 C 4,8 km/h (1 Bft)
27.12.2008 08:00 -1,3 C 82 % 1036,8 hPa 0,0 l/m 1,5 km/h (1 Bft) NW -4,0 C -1,3 C 4,8 km/h (1 Bft)
27.12.2008 09:00 -1,2 C 81 % 1037,2 hPa 0,0 l/m 2,3 km/h (1 Bft) NW -4,0 C -1,2 C 6,0 km/h (2 Bft)
27.12.2008 10:00 -0,9 C 81 % 1037,1 hPa 0,0 l/m 1,6 km/h (1 Bft) N-NO -3,7 C -0,9 C 4,4 km/h (1 Bft)
27.12.2008 11:00 -0,3 C 78 % 1036,6 hPa 0,0 l/m 2,0 km/h (1 Bft) NW -3,7 C -0,3 C 6,4 km/h (2 Bft)
27.12.2008 12:00 0,0 C 77 % 1036,2 hPa 0,0 l/m 2,5 km/h (1 Bft) N-NO -3,6 C 0,0 C 7,2 km/h (2 Bft)
27.12.2008 13:00 0,1 C 75 % 1035,7 hPa 0,0 l/m 1,0 km/h (0 Bft) N-NO -3,8 C 0,1 C 4,0 km/h (1 Bft)
27.12.2008 14:00 0,1 C 75 % 1035,5 hPa 0,0 l/m 1,5 km/h (1 Bft) O -3,7 C 0,1 C 5,6 km/h (1 Bft)
27.12.2008 15:00 -0,2 C 76 % 1035,7 hPa 0,0 l/m 2,8 km/h (1 Bft) O -3,8 C -0,2 C 6,0 km/h (2 Bft)
27.12.2008 16:00 -0,3 C 77 % 1035,7 hPa 0,0 l/m 1,5 km/h (1 Bft) NO -3,9 C -0,3 C 5,6 km/h (1 Bft)
27.12.2008 17:00 -0,5 C 77 % 1035,9 hPa 0,0 l/m 1,4 km/h (1 Bft) NO -4,0 C -0,5 C 6,0 km/h (2 Bft)
27.12.2008 18:00 -0,7 C 77 % 1036,1 hPa 0,0 l/m 0,7 km/h (0 Bft) NO -4,2 C -0,7 C 4,4 km/h (1 Bft)
27.12.2008 19:00 -1,0 C 75 % 1036,3 hPa 0,0 l/m 3,0 km/h (1 Bft) NO -4,9 C -1,0 C 8,5 km/h (2 Bft)
27.12.2008 20:00 -1,7 C 73 % 1036,5 hPa 0,0 l/m 1,2 km/h (1 Bft) N -5,8 C -1,7 C 5,2 km/h (1 Bft)
27.12.2008 21:00 -2,6 C 75 % 1036,7 hPa 0,0 l/m 0,2 km/h (0 Bft) N -6,4 C -2,6 C 2,8 km/h (1 Bft)
27.12.2008 22:00 -3,2 C 78 % 1036,6 hPa 0,0 l/m 0,4 km/h (0 Bft) N -6,5 C -3,2 C 3,6 km/h (1 Bft)
27.12.2008 23:00 -4,0 C 79 % 1036,4 hPa 0,0 l/m 0,0 km/h (0 Bft) N -7,1 C -4,0 C 0,4 km/h (0 Bft)
28.12.2008 00:00 -4,9 C 81 % 1036,3 hPa 0,0 l/m 0,0 km/h (0 Bft) N -7,7 C -4,9 C 0,0 km/h (0 Bft)
28.12.2008 01:00 -5,7 C 83 % 1036,2 hPa 0,0 l/m 0,0 km/h (0 Bft) N -8,1 C -5,7 C 0,0 km/h (0 Bft)
28.12.2008 02:00 -6,2 C 85 % 1036,2 hPa 0,0 l/m 0,0 km/h (0 Bft) N -8,4 C -6,2 C 0,0 km/h (0 Bft)
28.12.2008 03:00 -6,6 C 86 % 1036,0 hPa 0,0 l/m 0,0 km/h (0 Bft) N -8,5 C -6,6 C 0,0 km/h (0 Bft)
28.12.2008 04:00 -6,7 C 86 % 1036,0 hPa 0,0 l/m 0,0 km/h (0 Bft) N -8,7 C -6,7 C 0,0 km/h (0 Bft)
28.12.2008 05:00 -7,1 C 87 % 1035,8 hPa 0,0 l/m 0,0 km/h (0 Bft) N -8,9 C -7,1 C 0,0 km/h (0 Bft)
28.12.2008 06:00 -7,6 C 87 % 1035,8 hPa 0,0 l/m 0,0 km/h (0 Bft) N -9,3 C -7,6 C 0,0 km/h (0 Bft)
28.12.2008 07:00 -7,8 C 87 % 1036,1 hPa 0,0 l/m 0,0 km/h (0 Bft) N -9,6 C -7,8 C 0,0 km/h (0 Bft)
28.12.2008 08:00 -8,0 C 88 % 1036,8 hPa 0,0 l/m 0,0 km/h (0 Bft) N -9,6 C -8,0 C 0,0 km/h (0 Bft)
28.12.2008 09:00 -7,1 C 89 % 1037,3 hPa 0,0 l/m 0,0 km/h (0 Bft) N -8,6 C -7,1 C 0,0 km/h (0 Bft)
28.12.2008 10:00 -5,5 C 89 % 1037,0 hPa 0,0 l/m 0,2 km/h (0 Bft) N -7,0 C -5,5 C 2,4 km/h (1 Bft)
28.12.2008 11:00 -4,3 C 88 % 1036,5 hPa 0,0 l/m 1,2 km/h (1 Bft) O -5,9 C -4,3 C 4,8 km/h (1 Bft)
28.12.2008 12:00 -3,4 C 84 % 1036,3 hPa 0,0 l/m 1,6 km/h (1 Bft) O-SO -5,7 C -3,4 C 5,6 km/h (1 Bft)
28.12.2008 13:00 -2,7 C 80 % 1036,1 hPa 0,0 l/m 0,7 km/h (0 Bft) O-SO -5,6 C -2,7 C 4,4 km/h (1 Bft)
28.12.2008 14:00 -2,7 C 82 % 1036,0 hPa 0,0 l/m 2,6 km/h (1 Bft) O-SO -5,4 C -2,7 C 6,4 km/h (2 Bft)
28.12.2008 15:00 -2,8 C 82 % 1035,6 hPa 0,0 l/m 1,1 km/h (1 Bft) O-SO -5,4 C -2,8 C 4,0 km/h (1 Bft)
28.12.2008 16:00 -3,4 C 82 % 1035,8 hPa 0,0 l/m 0,0 km/h (0 Bft) N -6,0 C -3,4 C 0,4 km/h (0 Bft)
28.12.2008 17:00 -4,7 C 83 % 1035,9 hPa 0,0 l/m 0,0 km/h (0 Bft) N -7,2 C -4,7 C 0,4 km/h (0 Bft)
28.12.2008 18:00 -5,5 C 85 % 1036,2 hPa 0,0 l/m 0,0 km/h (0 Bft) N -7,7 C -5,5 C 0,0 km/h (0 Bft)
28.12.2008 19:00 -6,2 C 85 % 1036,6 hPa 0,0 l/m 0,0 km/h (0 Bft) N -8,3 C -6,2 C 0,0 km/h (0 Bft)
28.12.2008 20:00 -6,9 C 86 % 1036,7 hPa 0,0 l/m 0,0 km/h (0 Bft) N -8,8 C -6,9 C 0,0 km/h (0 Bft)
28.12.2008 21:00 -7,5 C 86 % 1037,0 hPa 0,0 l/m 0,0 km/h (0 Bft) N -9,4 C -7,5 C 0,0 km/h (0 Bft)
28.12.2008 22:00 -7,9 C 87 % 1037,1 hPa 0,0 l/m 0,0 km/h (0 Bft) N -9,6 C -7,9 C 0,0 km/h (0 Bft)
28.12.2008 23:00 -8,2 C 87 % 1036,7 hPa 0,0 l/m 0,0 km/h (0 Bft) N -9,9 C -8,2 C 0,0 km/h (0 Bft)
Min-Datum _ 28.12.08 23.12.08 24.12.08 - 27.12.08 - 28.12.08 28.12.08 27.12.08
_ Min-Zeit 23:45 00:00 20:45 - 22:45 - 23:45 23:45 23:15
Minimum _ -8,3 C 59 % 1022,2 hPa - 0,0 km/h (0 Bft) - -10,1 C -8,3 C 0,0 km/h (0 Bft)
Max-Datum _ 22.12.08 22.12.08 26.12.08 25.12.08 22.12.08 - 22.12.08 22.12.08 22.12.08
_ Max-Zeit 09:45 00:15 10:00 02:00 07:30 - 19:00 01:45 07:30
Maximum _ 9,2 C 90 % 1039,7 hPa 1,8 l/m 25,6 km/h
W-NW (4 Bft)
- 5,0 C 6,6 C 54,7 km/h
W (7 Bft)
Durchschnitt _ 1,9 C 76 % 1031,6 hPa #6,9 l/m 7,8 km/h (2 Bft) NW -2,0 C -0,3 C 17,6 km/h (3 Bft)